Adrian, Oregon
Current Conditions -  °F | °C
As of 5:53 AM on Friday 19 Dec 2014 (Local Time) from KONO Reporting Station
Haze Haze  
Wind Chill: 37°   Ceiling: 7500
Heat Index: 37°   Visibility: 6mi
Dew Point: 34°   Wind: 0mph
Humidity: 89%   Direction: NA
Pressure: 30.06"   Gusts: NA
Location:  43.74°N, 117.07°W
Report Text: KONO 191253Z AUTO 00000KT 6SM BR OVC075 03/01 A3006 RMK AO2 UPB40E42RAB42E52 SLP191 P0000 T00280011
Loading
Personal Weather Stations






























Interactive Weather Map New forecast layout! Learn more

10-Day Weather Forecast

Advertisements
Track Severe Weather on mobile